Terminal Aerodrome Forecast
Issued by NWS

Home | Current Version | Previous Version | Graphics & Text | Print | Product List | Glossary On
Versions: 1 2 3 4 5 6 7 8 9 10 11 12 13 14
000
FTUS43 KMPX 291128
TAFRNH
TAF
KRNH 291128Z 2912/3012 25013KT P6SM SKC
     FM291400 27016G25KT P6SM SKC
     FM291600 27022G32KT P6SM FEW060
     FM300100 25007KT P6SM SKC=

USA.gov is the U.S. government's official web portal to all federal, state and local government web resources and services.